Time;durP1;ratioP1;P1;durP2;ratioP2;P2;SDS_P1;SDS_P2;PMS_P1;PMS_P2;Temp;Humidity;BMP_temperature;BMP_pressure;BME280_temperature;BME280_humidity;BME280_pressure;Samples;Min_cycle;Max_cycle;Signal;HPM_P1;HPM_P2
2023/03/16 00:02:17;;;;;;;23.70;8.50;;;2.20;99.90;;;;;;5061898;28;20056;-72
2023/03/16 00:04:46;;;;;;;23.58;8.27;;;2.20;99.90;;;;;;5063100;28;20059;-72
2023/03/16 00:07:12;;;;;;;22.48;8.82;;;2.20;99.90;;;;;;5060539;28;20048;-71
2023/03/16 00:09:41;;;;;;;18.02;7.97;;;2.20;99.90;;;;;;5062825;28;20048;-72
2023/03/16 00:12:15;;;;;;;24.00;8.60;;;2.20;99.90;;;;;;5062583;28;20029;-71
2023/03/16 00:14:42;;;;;;;18.35;8.07;;;2.20;99.90;;;;;;5060724;28;20066;-72
2023/03/16 00:17:17;;;;;;;26.35;8.07;;;2.20;99.90;;;;;;5061286;28;20033;-72
2023/03/16 00:19:53;;;;;;;18.42;7.95;;;2.20;99.90;;;;;;5062750;28;20056;-72
2023/03/16 00:22:20;;;;;;;20.42;8.23;;;2.20;99.90;;;;;;5061444;28;20105;-72
2023/03/16 00:24:46;;;;;;;17.00;8.18;;;2.20;99.90;;;;;;5062591;28;20056;-72
2023/03/16 00:27:13;;;;;;;18.90;8.93;;;2.20;99.90;;;;;;5061536;28;20033;-71
2023/03/16 00:29:48;;;;;;;20.17;7.68;;;2.10;99.90;;;;;;5062272;28;20029;-72
2023/03/16 00:32:18;;;;;;;18.08;7.78;;;2.10;99.90;;;;;;5062481;28;20033;-72
2023/03/16 00:34:45;;;;;;;23.05;7.70;;;2.10;99.90;;;;;;5062378;28;20040;-71
2023/03/16 00:37:14;;;;;;;17.45;7.45;;;2.10;99.90;;;;;;5061970;28;20029;-72
2023/03/16 00:39:40;;;;;;;16.95;7.18;;;2.10;99.90;;;;;;5061881;28;20031;-72
2023/03/16 00:42:08;;;;;;;18.50;8.07;;;2.10;99.90;;;;;;5062317;28;20048;-72
2023/03/16 00:44:34;;;;;;;26.88;8.02;;;2.00;99.90;;;;;;5060358;28;20021;-71
2023/03/16 00:47:00;;;;;;;20.42;7.95;;;2.00;99.90;;;;;;5061552;28;20502;-72
2023/03/16 00:49:26;;;;;;;19.27;7.43;;;2.10;99.90;;;;;;5061971;28;20029;-72
2023/03/16 00:51:51;;;;;;;22.83;7.55;;;2.00;99.90;;;;;;5060394;28;20025;-73
2023/03/16 00:54:17;;;;;;;18.88;7.32;;;2.00;99.90;;;;;;5062410;28;20021;-72
2023/03/16 00:56:43;;;;;;;19.30;7.50;;;2.00;99.90;;;;;;5062156;28;20029;-72
2023/03/16 00:59:08;;;;;;;23.55;7.93;;;2.00;99.90;;;;;;5061191;28;20048;-72
2023/03/16 01:01:34;;;;;;;23.98;7.88;;;2.00;99.90;;;;;;5061470;28;20029;-71
2023/03/16 01:04:00;;;;;;;17.35;7.75;;;2.00;99.90;;;;;;5061738;28;20028;-72
2023/03/16 01:06:26;;;;;;;23.80;7.68;;;2.00;99.90;;;;;;5061821;28;20037;-72
2023/03/16 01:08:51;;;;;;;18.00;7.68;;;2.00;99.90;;;;;;5060816;28;20082;-72
2023/03/16 01:11:20;;;;;;;20.10;8.23;;;2.00;99.90;;;;;;5061282;28;20699;-72
2023/03/16 01:13:47;;;;;;;18.50;7.75;;;1.90;99.90;;;;;;5061191;28;20029;-71
2023/03/16 01:16:13;;;;;;;19.52;8.38;;;1.80;99.90;;;;;;5061463;28;20020;-72
2023/03/16 01:18:40;;;;;;;20.63;8.02;;;1.80;99.90;;;;;;5061245;28;20028;-71
2023/03/16 01:21:07;;;;;;;20.55;8.52;;;1.70;99.90;;;;;;5061049;28;20119;-72
2023/03/16 01:23:36;;;;;;;19.63;7.63;;;1.70;99.90;;;;;;5060062;28;20107;-71
2023/03/16 01:26:02;;;;;;;18.73;6.93;;;1.70;99.90;;;;;;5061001;28;20052;-72
2023/03/16 01:28:30;;;;;;;15.10;6.95;;;1.70;99.90;;;;;;5060060;28;20071;-72
2023/03/16 01:31:00;;;;;;;18.42;6.18;;;1.70;99.90;;;;;;5059814;28;20089;-73
2023/03/16 01:33:27;;;;;;;19.17;6.65;;;1.70;99.90;;;;;;5060867;28;20025;-73
2023/03/16 01:35:57;;;;;;;19.13;6.90;;;1.70;99.90;;;;;;5060040;28;20025;-73
2023/03/16 01:38:23;;;;;;;16.80;6.28;;;1.70;99.90;;;;;;5059889;28;20086;-72
2023/03/16 01:40:50;;;;;;;13.13;5.80;;;1.70;99.90;;;;;;5059402;28;20064;-71
2023/03/16 01:43:18;;;;;;;16.80;6.35;;;1.70;99.90;;;;;;5061350;28;20528;-71
2023/03/16 01:46:04;;;;;;;15.15;6.13;;;1.70;99.90;;;;;;5058705;28;20024;-72
2023/03/16 01:48:36;;;;;;;15.25;6.10;;;1.70;99.90;;;;;;5056132;28;20033;-72
2023/03/16 01:51:10;;;;;;;16.65;5.75;;;1.70;99.90;;;;;;5060498;28;20390;-71
2023/03/16 01:53:38;;;;;;;13.02;6.28;;;1.70;99.90;;;;;;5060134;28;20029;-71
2023/03/16 01:56:07;;;;;;;17.75;6.60;;;1.70;99.90;;;;;;5059882;28;20033;-71
2023/03/16 01:58:34;;;;;;;20.80;6.03;;;1.70;99.90;;;;;;5060804;28;20017;-71
2023/03/16 02:01:00;;;;;;;12.43;5.15;;;1.70;99.90;;;;;;5059409;28;20024;-71
2023/03/16 02:03:26;;;;;;;15.38;5.35;;;1.70;99.90;;;;;;5060902;28;20029;-72
2023/03/16 02:06:10;;;;;;;12.77;5.20;;;1.70;99.90;;;;;;5060197;28;20021;-72
2023/03/16 02:08:38;;;;;;;13.57;5.10;;;1.80;99.90;;;;;;5060641;28;20476;-71
2023/03/16 02:11:06;;;;;;;10.38;5.25;;;1.80;99.90;;;;;;5060080;28;20092;-72
2023/03/16 02:13:35;;;;;;;16.52;5.25;;;1.80;99.90;;;;;;5058661;28;20048;-71
2023/03/16 02:16:04;;;;;;;16.83;4.95;;;1.70;99.90;;;;;;5060462;28;20044;-71
2023/03/16 02:18:30;;;;;;;21.63;5.28;;;1.80;99.90;;;;;;5060297;28;20047;-72
2023/03/16 02:21:29;;;;;;;14.63;5.53;;;1.70;99.90;;;;;;5058895;28;20029;-72
2023/03/16 02:23:54;;;;;;;19.85;5.63;;;1.70;99.90;;;;;;5059113;28;20041;-72
2023/03/16 02:26:43;;;;;;;16.52;5.38;;;1.70;99.90;;;;;;5060034;28;20052;-72
2023/03/16 02:29:38;;;;;;;12.57;5.32;;;1.70;99.90;;;;;;5059363;28;20067;-72
2023/03/16 02:32:04;;;;;;;10.73;4.80;;;1.80;99.90;;;;;;5060344;28;20039;-71
2023/03/16 02:34:30;;;;;;;14.00;4.95;;;1.70;99.90;;;;;;5059592;28;20052;-71
2023/03/16 02:36:57;;;;;;;9.75;4.43;;;1.70;99.90;;;;;;5060161;28;20029;-72
2023/03/16 02:39:23;;;;;;;16.73;5.53;;;1.70;99.90;;;;;;5058448;28;20027;-72
2023/03/16 02:41:49;;;;;;;12.30;4.68;;;1.70;99.90;;;;;;5059243;28;20041;-71
2023/03/16 02:44:23;;;;;;;16.70;4.88;;;1.70;99.90;;;;;;5060350;28;20029;-71
2023/03/16 02:46:51;;;;;;;11.90;5.25;;;1.70;99.90;;;;;;5059306;28;20043;-73
2023/03/16 02:49:25;;;;;;;15.52;4.70;;;1.60;99.90;;;;;;5059877;28;20021;-71
2023/03/16 02:51:52;;;;;;;12.27;4.75;;;1.60;99.90;;;;;;5059808;28;20104;-73
2023/03/16 02:54:17;;;;;;;15.65;4.40;;;1.70;99.90;;;;;;5060122;28;20025;-72
2023/03/16 02:56:43;;;;;;;15.52;4.60;;;1.60;99.90;;;;;;5060286;28;20418;-71
2023/03/16 02:59:10;;;;;;;14.40;4.57;;;1.60;99.90;;;;;;5059970;28;20036;-72
2023/03/16 03:01:36;;;;;;;13.73;4.30;;;1.60;99.90;;;;;;5060155;28;20593;-71
2023/03/16 03:04:03;;;;;;;10.40;4.88;;;1.50;99.90;;;;;;5060197;28;20029;-71
2023/03/16 03:06:31;;;;;;;17.48;4.25;;;1.40;99.90;;;;;;5059725;28;20039;-72
2023/03/16 03:08:57;;;;;;;9.70;4.22;;;1.50;99.90;;;;;;5059331;28;20029;-71
2023/03/16 03:11:22;;;;;;;10.07;4.57;;;1.50;99.90;;;;;;5059433;28;20025;-72
2023/03/16 03:13:48;;;;;;;7.88;4.00;;;1.50;99.90;;;;;;5060727;28;20085;-72
2023/03/16 03:16:14;;;;;;;9.48;4.07;;;1.50;99.90;;;;;;5060995;28;20021;-72
2023/03/16 03:18:40;;;;;;;12.65;4.25;;;1.50;99.90;;;;;;5061063;28;20025;-71
2023/03/16 03:21:06;;;;;;;11.63;4.10;;;1.50;99.90;;;;;;5059168;28;20112;-72
2023/03/16 03:23:33;;;;;;;11.70;4.35;;;1.50;99.90;;;;;;5059615;28;20025;-72
2023/03/16 03:26:00;;;;;;;14.30;4.65;;;1.50;99.90;;;;;;5059716;28;20553;-72
2023/03/16 03:28:25;;;;;;;13.65;4.30;;;1.50;99.90;;;;;;5059895;28;20041;-71
2023/03/16 03:30:51;;;;;;;14.57;4.50;;;1.50;99.90;;;;;;5060224;28;20059;-72
2023/03/16 03:33:18;;;;;;;13.77;5.05;;;1.40;99.90;;;;;;5059970;28;20024;-73
2023/03/16 03:35:43;;;;;;;16.08;4.80;;;1.40;99.90;;;;;;5059672;28;20087;-72
2023/03/16 03:38:09;;;;;;;7.95;4.20;;;1.40;99.90;;;;;;5059026;28;20021;-72
2023/03/16 03:40:35;;;;;;;10.73;4.10;;;1.40;99.90;;;;;;5059202;28;20017;-71
2023/03/16 03:43:01;;;;;;;13.43;4.32;;;1.40;99.90;;;;;;5063550;28;20473;-72
2023/03/16 03:45:27;;;;;;;13.45;3.75;;;1.30;99.90;;;;;;5063387;28;20029;-72
2023/03/16 03:47:54;;;;;;;12.25;3.78;;;1.30;99.90;;;;;;5063561;28;20359;-72
2023/03/16 03:50:20;;;;;;;15.45;4.35;;;1.30;99.90;;;;;;5063490;28;20029;-73
2023/03/16 03:52:46;;;;;;;9.50;4.18;;;1.30;99.90;;;;;;5063463;28;20021;-72
2023/03/16 03:55:12;;;;;;;12.75;4.43;;;1.30;99.90;;;;;;5063668;28;20032;-72
2023/03/16 03:57:38;;;;;;;13.75;4.43;;;1.20;99.90;;;;;;5063346;28;20029;-71
2023/03/16 04:00:10;;;;;;;16.38;4.65;;;1.20;99.90;;;;;;5062764;28;20025;-71
2023/03/16 04:02:37;;;;;;;15.93;4.82;;;1.20;99.90;;;;;;5062980;28;20036;-71
2023/03/16 04:05:03;;;;;;;16.50;4.40;;;1.20;99.90;;;;;;5062555;28;20021;-71
2023/03/16 04:07:28;;;;;;;10.43;5.00;;;1.20;99.90;;;;;;5063193;28;20120;-71
2023/03/16 04:09:54;;;;;;;16.88;5.18;;;1.20;99.90;;;;;;5062901;28;20120;-71
2023/03/16 04:12:19;;;;;;;12.15;4.82;;;1.20;99.90;;;;;;5063076;28;20051;-72
2023/03/16 04:14:45;;;;;;;10.82;5.13;;;1.30;99.90;;;;;;5063199;28;20023;-72
2023/03/16 04:17:11;;;;;;;13.18;5.45;;;1.30;99.90;;;;;;5062936;28;20824;-72
2023/03/16 04:19:37;;;;;;;13.95;5.35;;;1.30;99.90;;;;;;5062739;28;20102;-71
2023/03/16 04:22:02;;;;;;;10.98;4.68;;;1.30;99.90;;;;;;5062764;28;20028;-71
2023/03/16 04:24:28;;;;;;;11.93;5.43;;;1.40;99.90;;;;;;5062627;28;20059;-72
2023/03/16 04:26:54;;;;;;;13.10;5.15;;;1.40;99.90;;;;;;5062794;28;20116;-74
2023/03/16 04:29:20;;;;;;;11.88;5.03;;;1.30;99.90;;;;;;5061778;28;20079;-71
2023/03/16 04:31:45;;;;;;;20.85;5.70;;;1.40;99.90;;;;;;5062346;28;20037;-71
2023/03/16 04:34:15;;;;;;;16.02;6.03;;;1.30;99.90;;;;;;5062230;28;20047;-71
2023/03/16 04:36:41;;;;;;;9.18;5.15;;;1.40;99.90;;;;;;5061216;28;20040;-71
2023/03/16 04:39:07;;;;;;;13.40;5.38;;;1.30;99.90;;;;;;5062436;28;20651;-71
2023/03/16 04:41:33;;;;;;;14.35;6.07;;;1.40;99.90;;;;;;5061557;28;20051;-71
2023/03/16 04:43:58;;;;;;;19.02;5.90;;;1.40;99.90;;;;;;5062405;28;20021;-71
2023/03/16 04:46:25;;;;;;;11.20;5.35;;;1.40;99.90;;;;;;5062312;28;20419;-73
2023/03/16 04:48:51;;;;;;;14.38;5.78;;;1.40;99.90;;;;;;5060434;28;20029;-71
2023/03/16 04:51:17;;;;;;;17.35;5.40;;;1.40;99.90;;;;;;5062350;28;20390;-73
2023/03/16 04:53:43;;;;;;;12.60;5.25;;;1.50;99.90;;;;;;5061442;28;20024;-72
2023/03/16 04:56:16;;;;;;;12.15;5.07;;;1.40;99.90;;;;;;5062130;28;20100;-71
2023/03/16 04:58:43;;;;;;;12.75;5.57;;;1.40;99.90;;;;;;5060962;28;20025;-71
2023/03/16 05:01:09;;;;;;;19.67;5.25;;;1.40;99.90;;;;;;5061135;28;20033;-72
2023/03/16 05:03:35;;;;;;;13.13;6.03;;;1.40;99.90;;;;;;5061642;28;20025;-72
2023/03/16 05:06:04;;;;;;;14.23;5.57;;;1.40;99.90;;;;;;5061849;28;20029;-72
2023/03/16 05:08:29;;;;;;;17.70;5.60;;;1.40;99.90;;;;;;5061549;28;20037;-72
2023/03/16 05:10:56;;;;;;;13.48;5.88;;;1.40;99.90;;;;;;5061566;28;20059;-72
2023/03/16 05:13:22;;;;;;;14.73;5.68;;;1.40;99.90;;;;;;5061547;28;20067;-72
2023/03/16 05:15:47;;;;;;;13.35;5.22;;;1.40;99.90;;;;;;5061237;28;20051;-72
2023/03/16 05:18:13;;;;;;;14.90;6.10;;;1.30;99.90;;;;;;5062553;28;20474;-72
2023/03/16 05:20:40;;;;;;;20.92;6.03;;;1.40;99.90;;;;;;5062358;28;20082;-72
2023/03/16 05:23:07;;;;;;;13.75;5.68;;;1.30;99.90;;;;;;5061346;28;20021;-71
2023/03/16 05:25:33;;;;;;;12.65;5.43;;;1.30;99.90;;;;;;5061184;28;20108;-72
2023/03/16 05:27:58;;;;;;;15.60;5.32;;;1.30;99.90;;;;;;5062484;28;20039;-73
2023/03/16 05:30:25;;;;;;;11.88;5.13;;;1.30;99.90;;;;;;5062328;28;20095;-72
2023/03/16 05:32:51;;;;;;;15.15;5.97;;;1.30;99.90;;;;;;5062487;28;20029;-72
2023/03/16 05:35:17;;;;;;;11.85;5.00;;;1.30;99.90;;;;;;5061122;28;20040;-72
2023/03/16 05:37:43;;;;;;;16.13;5.85;;;1.30;99.90;;;;;;5062443;28;20037;-72
2023/03/16 05:40:16;;;;;;;19.80;5.95;;;1.30;99.90;;;;;;5060757;28;20025;-72
2023/03/16 05:42:46;;;;;;;16.23;5.93;;;1.30;99.90;;;;;;5060822;28;20033;-71
2023/03/16 05:45:14;;;;;;;13.65;5.18;;;1.30;99.90;;;;;;5062345;28;20029;-72
2023/03/16 05:47:40;;;;;;;11.80;4.88;;;1.30;99.90;;;;;;5061902;28;20041;-72
2023/03/16 05:50:08;;;;;;;20.27;6.05;;;1.30;99.90;;;;;;5061808;28;20406;-72
2023/03/16 05:52:33;;;;;;;12.90;5.72;;;1.40;99.90;;;;;;5062135;28;20029;-71
2023/03/16 05:54:59;;;;;;;13.10;5.30;;;1.40;99.90;;;;;;5061384;28;20397;-72
2023/03/16 05:57:25;;;;;;;13.88;4.78;;;1.40;99.90;;;;;;5061961;28;20021;-73
2023/03/16 05:59:51;;;;;;;11.15;5.25;;;1.40;99.90;;;;;;5062477;28;20063;-71
2023/03/16 06:02:17;;;;;;;13.98;5.15;;;1.40;99.90;;;;;;5061968;28;20029;-72
2023/03/16 06:04:42;;;;;;;12.77;5.28;;;1.50;99.90;;;;;;5060879;28;20073;-73
2023/03/16 06:07:08;;;;;;;11.65;4.68;;;1.50;99.90;;;;;;5061594;28;20036;-72
2023/03/16 06:09:34;;;;;;;13.13;4.95;;;1.50;99.90;;;;;;5061722;28;20036;-72
2023/03/16 06:11:59;;;;;;;10.07;4.70;;;1.50;99.90;;;;;;5061352;28;20689;-71
2023/03/16 06:14:25;;;;;;;10.10;5.00;;;1.60;99.90;;;;;;5061674;28;20028;-71
2023/03/16 06:16:50;;;;;;;12.93;5.20;;;1.60;99.90;;;;;;5061625;28;20088;-71
2023/03/16 06:19:16;;;;;;;11.25;4.80;;;1.60;99.90;;;;;;5061184;28;20021;-71
2023/03/16 06:21:42;;;;;;;19.52;5.15;;;1.60;99.90;;;;;;5060220;28;20025;-70
2023/03/16 06:24:08;;;;;;;12.95;5.13;;;1.70;99.90;;;;;;5061559;28;20029;-71
2023/03/16 06:26:35;;;;;;;11.02;4.60;;;1.70;99.90;;;;;;5061339;28;20414;-70
2023/03/16 06:29:00;;;;;;;13.07;5.28;;;1.70;99.90;;;;;;5059736;28;20083;-71
2023/03/16 06:31:26;;;;;;;11.82;5.18;;;1.70;99.90;;;;;;5060104;28;20441;-70
2023/03/16 06:33:51;;;;;;;15.43;6.10;;;1.80;99.90;;;;;;5061601;28;20056;-71
2023/03/16 06:36:17;;;;;;;17.20;5.65;;;1.80;99.90;;;;;;5059752;28;20033;-71
2023/03/16 06:38:43;;;;;;;19.08;4.85;;;1.90;99.90;;;;;;5061070;28;20017;-69
2023/03/16 06:41:09;;;;;;;13.05;4.43;;;1.90;99.90;;;;;;5060839;28;20059;-70
2023/03/16 06:43:35;;;;;;;13.07;4.90;;;1.90;99.90;;;;;;5059621;28;20029;-70
2023/03/16 06:46:00;;;;;;;13.80;5.18;;;2.00;99.90;;;;;;5059700;28;20055;-70
2023/03/16 06:48:26;;;;;;;14.43;4.80;;;2.00;99.90;;;;;;5060867;28;20057;-72
2023/03/16 06:50:52;;;;;;;14.90;5.03;;;2.00;99.90;;;;;;5060883;28;20512;-71
2023/03/16 06:53:18;;;;;;;13.45;4.53;;;2.10;99.90;;;;;;5059617;28;20020;-71
2023/03/16 06:55:43;;;;;;;12.77;4.63;;;2.10;99.90;;;;;;5060783;28;20044;-71
2023/03/16 06:58:09;;;;;;;11.30;4.75;;;2.10;99.90;;;;;;5058096;28;20048;-70
2023/03/16 07:00:36;;;;;;;13.13;4.32;;;2.20;99.90;;;;;;5056990;28;20040;-71
2023/03/16 07:03:01;;;;;;;10.15;4.45;;;2.30;99.90;;;;;;5058162;28;20470;-71
2023/03/16 07:05:28;;;;;;;13.48;4.78;;;2.20;99.90;;;;;;5061144;28;20037;-71
2023/03/16 07:07:53;;;;;;;12.13;4.35;;;2.40;99.90;;;;;;5060823;28;20075;-71
2023/03/16 07:10:19;;;;;;;14.75;4.28;;;2.40;99.90;;;;;;5059711;28;20029;-71
2023/03/16 07:12:45;;;;;;;10.40;4.07;;;2.50;99.90;;;;;;5061497;28;20036;-71
2023/03/16 07:15:11;;;;;;;10.60;4.20;;;2.50;99.90;;;;;;5060313;28;20342;-70
2023/03/16 07:17:38;;;;;;;13.10;4.10;;;2.60;99.90;;;;;;5065116;28;20103;-71
2023/03/16 07:20:08;;;;;;;11.85;3.97;;;2.60;99.90;;;;;;5063918;28;20031;-71
2023/03/16 07:22:34;;;;;;;12.52;4.03;;;2.70;99.90;;;;;;5064896;28;20033;-71
2023/03/16 07:25:00;;;;;;;12.38;3.75;;;2.80;99.90;;;;;;5063540;28;20041;-70
2023/03/16 07:27:26;;;;;;;8.88;3.17;;;2.90;99.90;;;;;;5065086;28;20067;-71
2023/03/16 07:29:52;;;;;;;13.65;3.30;;;2.90;99.90;;;;;;5065112;28;20098;-71
2023/03/16 07:32:18;;;;;;;8.57;3.40;;;3.00;99.90;;;;;;5059377;28;20742;-72
2023/03/16 07:34:44;;;;;;;8.43;3.67;;;3.00;99.90;;;;;;5061175;28;20032;-71
2023/03/16 07:37:10;;;;;;;9.48;3.60;;;3.10;99.90;;;;;;5064022;28;20037;-70
2023/03/16 07:39:36;;;;;;;7.15;3.20;;;3.10;99.90;;;;;;5063668;28;20123;-71
2023/03/16 07:42:02;;;;;;;14.93;3.35;;;3.20;99.90;;;;;;5064058;28;20036;-71
2023/03/16 07:44:27;;;;;;;9.80;3.88;;;3.20;99.90;;;;;;5064934;28;20032;-70
2023/03/16 07:46:53;;;;;;;12.48;2.90;;;3.30;99.90;;;;;;5064902;28;20041;-70
2023/03/16 07:49:19;;;;;;;8.55;3.35;;;3.40;99.90;;;;;;5063176;28;20033;-71
2023/03/16 07:51:45;;;;;;;7.45;2.72;;;3.50;99.90;;;;;;5064754;28;20033;-71
2023/03/16 07:54:10;;;;;;;7.28;3.20;;;3.60;99.90;;;;;;5062245;28;20057;-70
2023/03/16 07:56:36;;;;;;;11.77;3.70;;;3.80;99.90;;;;;;5059913;28;20598;-71
2023/03/16 07:59:02;;;;;;;8.45;3.60;;;4.00;99.90;;;;;;5063757;28;20032;-71
2023/03/16 08:01:28;;;;;;;10.15;3.67;;;4.30;99.90;;;;;;5063644;28;20076;-71
2023/03/16 08:03:54;;;;;;;10.57;3.42;;;4.40;99.90;;;;;;5064514;28;20020;-70
2023/03/16 08:06:20;;;;;;;10.93;3.83;;;4.60;99.90;;;;;;5062573;28;20063;-71
2023/03/16 08:08:46;;;;;;;13.02;3.70;;;4.90;99.90;;;;;;5064337;28;20037;-70
2023/03/16 08:11:13;;;;;;;9.00;3.50;;;5.10;99.90;;;;;;5062211;28;20025;-72
2023/03/16 08:13:42;;;;;;;8.63;3.10;;;5.30;99.90;;;;;;5062646;28;20021;-71
2023/03/16 08:16:09;;;;;;;11.10;3.00;;;5.40;99.90;;;;;;5063749;28;20418;-70
2023/03/16 08:18:35;;;;;;;6.32;2.63;;;5.60;99.90;;;;;;5064311;28;20069;-71
2023/03/16 08:21:01;;;;;;;11.63;3.42;;;5.50;99.90;;;;;;5061160;28;20029;-73
2023/03/16 08:23:28;;;;;;;10.70;3.47;;;5.50;99.90;;;;;;5063828;28;20031;-70
2023/03/16 08:25:55;;;;;;;9.05;3.35;;;5.50;99.90;;;;;;5063979;28;20041;-71
2023/03/16 08:28:21;;;;;;;17.70;3.65;;;5.60;99.90;;;;;;5062177;28;20162;-70
2023/03/16 08:30:48;;;;;;;11.07;3.53;;;5.40;99.90;;;;;;5064008;28;20072;-70
2023/03/16 08:33:16;;;;;;;8.88;3.55;;;5.60;99.90;;;;;;5061468;28;20033;-71
2023/03/16 08:35:45;;;;;;;8.45;2.67;;;5.50;99.90;;;;;;5062455;28;20382;-73
2023/03/16 08:38:12;;;;;;;9.18;3.33;;;5.60;99.90;;;;;;5061957;28;20025;-72
2023/03/16 08:40:40;;;;;;;11.80;3.83;;;5.70;99.90;;;;;;5063184;28;20029;-71
2023/03/16 08:43:07;;;;;;;11.68;3.90;;;5.60;99.90;;;;;;5061208;28;20021;-72
2023/03/16 08:45:32;;;;;;;10.23;3.55;;;5.90;99.90;;;;;;5063856;28;20025;-72
2023/03/16 08:47:58;;;;;;;9.65;3.67;;;5.90;99.90;;;;;;5062060;28;20044;-71
2023/03/16 08:50:24;;;;;;;10.15;4.20;;;6.00;99.90;;;;;;5063443;28;20021;-71
2023/03/16 08:52:50;;;;;;;10.85;3.70;;;6.10;99.90;;;;;;5063624;28;20432;-73
2023/03/16 08:55:15;;;;;;;12.73;3.80;;;6.10;99.90;;;;;;5063610;28;20021;-71
2023/03/16 08:57:43;;;;;;;12.68;4.00;;;6.30;99.90;;;;;;5062632;28;20032;-71
2023/03/16 09:00:13;;;;;;;8.60;3.88;;;6.40;99.90;;;;;;5062388;28;20108;-72
2023/03/16 09:02:40;;;;;;;12.82;3.90;;;6.50;99.90;;;;;;5061893;28;20045;-71
2023/03/16 09:05:11;;;;;;;16.50;3.63;;;6.50;99.90;;;;;;5059640;28;20029;-73
2023/03/16 09:07:38;;;;;;;9.55;3.15;;;6.50;99.90;;;;;;5059746;28;20049;-73
2023/03/16 09:10:07;;;;;;;8.23;3.72;;;6.60;99.90;;;;;;5062329;28;20036;-72
2023/03/16 09:12:36;;;;;;;12.05;4.05;;;6.70;99.90;;;;;;5061693;28;20029;-73
2023/03/16 09:15:03;;;;;;;12.55;4.22;;;6.80;99.90;;;;;;5062506;28;20122;-71
2023/03/16 09:17:28;;;;;;;11.55;3.83;;;6.80;99.90;;;;;;5060531;28;20089;-72
2023/03/16 09:19:54;;;;;;;8.80;3.17;;;6.90;99.90;;;;;;5061052;28;20041;-72
2023/03/16 09:22:20;;;;;;;7.32;3.08;;;6.90;99.90;;;;;;5063064;28;20104;-71
2023/03/16 09:24:47;;;;;;;11.65;3.67;;;6.90;99.90;;;;;;5059901;28;20403;-71
2023/03/16 09:27:14;;;;;;;8.98;3.45;;;7.00;99.90;;;;;;5058235;28;20044;-71
2023/03/16 09:29:41;;;;;;;8.73;2.97;;;7.00;99.90;;;;;;5056553;28;20617;-71
2023/03/16 09:32:07;;;;;;;8.18;2.67;;;7.10;99.90;;;;;;5059248;28;20040;-73
2023/03/16 09:34:33;;;;;;;11.63;3.28;;;7.20;99.90;;;;;;5054465;28;20047;-72
2023/03/16 09:36:59;;;;;;;7.10;3.13;;;7.30;99.90;;;;;;5062173;28;20120;-73
2023/03/16 09:39:24;;;;;;;7.35;2.88;;;7.40;99.90;;;;;;5060523;28;20021;-73
2023/03/16 09:42:03;;;;;;;5.63;2.40;;;7.50;99.90;;;;;;5059737;28;20124;-74
2023/03/16 09:45:06;;;;;;;11.73;3.70;;;7.50;99.90;;;;;;5059866;28;20064;-72
2023/03/16 09:47:35;;;;;;;7.45;3.08;;;7.60;99.90;;;;;;5059927;28;20557;-73
2023/03/16 09:50:07;;;;;;;6.60;2.97;;;7.70;99.90;;;;;;5057379;28;20021;-71
2023/03/16 09:52:51;;;;;;;7.78;3.08;;;7.80;99.90;;;;;;5060570;28;20025;-72
2023/03/16 09:55:36;;;;;;;7.07;2.85;;;7.90;99.90;;;;;;5061365;28;20033;-72
2023/03/16 09:58:11;;;;;;;6.00;1.90;;;8.00;99.90;;;;;;5060791;28;20090;-73
2023/03/16 10:00:54;;;;;;;5.15;2.75;;;8.00;99.90;;;;;;5060394;28;20531;-72
2023/03/16 10:03:34;;;;;;;8.90;3.05;;;8.10;99.90;;;;;;5062102;28;20032;-74
2023/03/16 10:06:04;;;;;;;6.85;3.20;;;8.20;99.90;;;;;;5061419;28;20037;-71
2023/03/16 10:08:37;;;;;;;6.25;3.13;;;8.20;99.90;;;;;;5061900;28;20044;-73
2023/03/16 10:11:30;;;;;;;10.50;3.47;;;8.20;99.90;;;;;;5061045;28;20021;-74
2023/03/16 10:14:38;;;;;;;7.32;2.75;;;8.30;99.90;;;;;;5060468;28;20041;-71
2023/03/16 10:17:13;;;;;;;9.13;2.90;;;8.30;99.90;;;;;;5059625;28;20095;-73
2023/03/16 10:19:44;;;;;;;4.85;2.70;;;8.30;99.90;;;;;;5059515;28;20039;-71
2023/03/16 10:22:18;;;;;;;7.10;3.05;;;8.40;99.90;;;;;;5060688;28;20051;-72
2023/03/16 10:24:44;;;;;;;;;;;8.40;99.90;;;;;;5060508;28;20109;-72
2023/03/16 10:27:19;;;;;;;6.68;2.20;;;8.50;99.90;;;;;;5060849;28;19956;-73
2023/03/16 10:29:45;;;;;;;6.80;2.80;;;8.40;99.90;;;;;;5059918;28;20062;-72
2023/03/16 10:32:15;;;;;;;7.75;2.22;;;8.50;99.90;;;;;;5060909;28;20029;-72
2023/03/16 10:34:45;;;;;;;8.07;3.05;;;8.40;99.90;;;;;;5059813;28;20059;-73
2023/03/16 10:37:13;;;;;;;3.67;2.00;;;8.40;99.90;;;;;;5060580;28;20063;-72
2023/03/16 10:39:42;;;;;;;9.05;2.90;;;8.40;99.90;;;;;;5060641;28;20447;-72
2023/03/16 10:42:18;;;;;;;5.85;2.42;;;8.40;99.90;;;;;;5060530;28;20124;-72
2023/03/16 10:44:45;;;;;;;8.57;3.20;;;8.40;99.90;;;;;;5060851;28;20030;-70
2023/03/16 10:47:36;;;;;;;4.55;2.30;;;8.50;99.90;;;;;;5059988;28;20063;-72
2023/03/16 10:50:15;;;;;;;4.03;2.00;;;8.60;99.90;;;;;;5060537;28;20033;-71
2023/03/16 10:52:45;;;;;;;4.97;2.53;;;8.70;99.90;;;;;;5060796;28;20033;-76
2023/03/16 10:55:31;;;;;;;6.63;2.90;;;8.80;99.90;;;;;;5059622;28;20139;-72
2023/03/16 10:57:57;;;;;;;8.40;2.67;;;8.90;99.90;;;;;;5059462;28;20028;-73
2023/03/16 11:00:29;;;;;;;5.60;2.35;;;9.20;99.90;;;;;;5059526;28;20039;-70
2023/03/16 11:02:58;;;;;;;7.50;2.50;;;9.30;99.90;;;;;;5058110;28;20036;-71
2023/03/16 11:05:31;;;;;;;6.13;2.60;;;9.40;99.90;;;;;;5059317;28;20032;-72
2023/03/16 11:08:10;;;;;;;9.73;2.90;;;9.40;99.90;;;;;;5058473;28;20029;-74
2023/03/16 11:10:46;;;;;;;8.93;2.92;;;9.40;99.90;;;;;;5057690;28;20075;-71
2023/03/16 11:13:18;;;;;;;6.68;2.30;;;9.40;99.90;;;;;;5060685;28;20527;-74
2023/03/16 11:15:49;;;;;;;4.97;2.70;;;9.40;99.90;;;;;;5060361;28;20040;-73
2023/03/16 11:18:47;;;;;;;6.60;2.80;;;9.40;99.90;;;;;;5061566;28;20029;-71
2023/03/16 11:21:18;;;;;;;7.13;2.70;;;9.40;99.90;;;;;;5060378;28;20033;-70
2023/03/16 11:23:50;;;;;;;3.20;2.08;;;9.50;99.90;;;;;;5059205;28;20122;-73
2023/03/16 11:26:26;;;;;;;4.22;2.05;;;9.60;99.90;;;;;;5060322;28;20067;-71
2023/03/16 11:29:10;;;;;;;8.35;1.83;;;9.60;99.90;;;;;;5057473;28;20044;-74
2023/03/16 11:31:57;;;;;;;7.57;2.65;;;9.50;99.90;;;;;;5059093;28;20055;-71
2023/03/16 11:34:31;;;;;;;6.63;2.72;;;9.40;99.90;;;;;;5060080;28;20033;-72
2023/03/16 11:37:09;;;;;;;;;;;9.50;99.90;;;;;;5061581;28;20063;-74
2023/03/16 11:40:13;;;;;;;11.05;2.65;;;9.60;99.90;;;;;;5058938;28;19905;-72
2023/03/16 11:42:45;;;;;;;7.93;2.78;;;9.80;99.90;;;;;;5061116;28;20029;-72
2023/03/16 11:45:35;;;;;;;7.53;3.30;;;9.90;99.90;;;;;;5059876;28;20092;-73
2023/03/16 11:48:17;;;;;;;7.03;2.83;;;10.20;99.90;;;;;;5059718;28;20090;-72
2023/03/16 11:50:49;;;;;;;6.53;3.08;;;10.20;99.90;;;;;;5061119;28;20025;-71
2023/03/16 11:53:41;;;;;;;6.05;3.00;;;10.40;99.90;;;;;;5059937;28;20065;-72
2023/03/16 11:56:34;;;;;;;6.15;2.80;;;10.50;99.90;;;;;;5058536;28;20074;-75
2023/03/16 11:59:18;;;;;;;6.53;3.10;;;10.50;99.90;;;;;;5059412;28;20028;-69
2023/03/16 12:02:14;;;;;;;6.70;3.17;;;10.60;99.90;;;;;;5054234;28;20029;-73
2023/03/16 12:05:06;;;;;;;6.47;3.03;;;10.80;99.90;;;;;;5060900;28;20525;-71
2023/03/16 12:07:57;;;;;;;8.30;2.47;;;10.80;99.90;;;;;;5061986;28;20366;-72
2023/03/16 12:10:28;;;;;;;7.22;2.65;;;10.70;99.90;;;;;;5058046;28;20076;-73
2023/03/16 12:13:29;;;;;;;7.30;3.00;;;10.50;99.90;;;;;;5063502;28;20021;-74
2023/03/16 12:16:04;;;;;;;8.48;3.00;;;10.50;99.90;;;;;;5061800;28;20028;-71
2023/03/16 12:18:42;;;;;;;7.38;3.03;;;10.40;99.90;;;;;;5064479;28;20508;-72
2023/03/16 12:21:18;;;;;;;5.22;2.95;;;10.60;99.90;;;;;;5062626;28;20105;-73
2023/03/16 12:23:52;;;;;;;5.15;2.60;;;10.80;99.90;;;;;;5063028;28;20063;-73
2023/03/16 12:26:21;;;;;;;5.72;2.50;;;11.00;99.90;;;;;;5064287;28;20045;-70
2023/03/16 12:28:48;;;;;;;10.30;2.72;;;11.10;99.90;;;;;;5063960;28;20029;-71
2023/03/16 12:31:19;;;;;;;4.97;2.53;;;11.10;99.90;;;;;;5062326;28;20028;-73
2023/03/16 12:34:15;;;;;;;9.65;2.53;;;11.00;99.90;;;;;;5063793;28;20063;-73
2023/03/16 12:36:53;;;;;;;5.80;2.42;;;10.80;99.90;;;;;;5061809;28;20024;-74
2023/03/16 12:39:32;;;;;;;7.53;2.47;;;10.70;99.90;;;;;;5062307;28;20075;-73
2023/03/16 12:42:23;;;;;;;5.28;2.45;;;10.50;99.90;;;;;;5062226;28;20033;-72
2023/03/16 12:45:01;;;;;;;8.65;2.60;;;10.40;99.90;;;;;;5061961;28;20136;-72
2023/03/16 12:47:41;;;;;;;6.40;2.92;;;10.30;99.90;;;;;;5063264;28;20033;-71
2023/03/16 12:50:10;;;;;;;9.85;2.58;;;10.30;99.90;;;;;;5061860;28;20043;-71
2023/03/16 12:52:44;;;;;;;5.25;2.63;;;10.30;99.90;;;;;;5062907;28;20025;-72
2023/03/16 12:55:17;;;;;;;6.35;2.65;;;10.30;99.90;;;;;;5063431;28;20028;-73
2023/03/16 12:57:44;;;;;;;10.50;5.05;;;10.30;99.90;;;;;;5061773;28;20425;-72
2023/03/16 13:00:12;;;;;;;5.38;2.78;;;10.20;99.90;;;;;;5061120;28;20041;-73
2023/03/16 13:02:43;;;;;;;4.78;2.50;;;10.20;99.90;;;;;;5061300;28;20065;-72
2023/03/16 13:05:27;;;;;;;6.38;3.20;;;10.20;99.90;;;;;;5062640;28;20033;-70